createdAt,value
2023-05-11T00:00:35.226Z,100862.78
2023-05-11T00:02:27.862Z,100862.78
2023-05-11T00:03:01.771Z,100945.31
2023-05-11T00:05:28.501Z,100952.38
2023-05-11T00:07:27.745Z,100952.38
2023-05-11T00:07:54.880Z,100950.06
2023-05-11T00:10:21.418Z,100862.69
2023-05-11T00:12:27.712Z,100862.69
2023-05-11T00:12:47.808Z,100949.72
2023-05-11T00:15:14.156Z,100950.25
2023-05-11T00:17:27.749Z,100950.25
2023-05-11T00:17:40.608Z,100948.66
2023-05-11T00:20:07.683Z,100882.50
2023-05-11T00:22:27.739Z,100882.50
2023-05-11T00:22:34.061Z,100944.91
2023-05-11T00:25:00.395Z,100887.38
2023-05-11T00:27:26.821Z,100951.66
2023-05-11T00:27:27.721Z,100951.66
2023-05-11T00:29:53.241Z,100927.94
2023-05-11T00:32:19.716Z,100885.53
2023-05-11T00:32:27.759Z,100885.53
2023-05-11T00:34:46.217Z,100968.34
2023-05-11T00:37:12.600Z,100963.94
2023-05-11T00:37:27.723Z,100963.94
2023-05-11T00:39:40.676Z,100963.78
2023-05-11T00:42:07.467Z,100905.00
2023-05-11T00:42:27.714Z,100905.00
2023-05-11T00:44:34.027Z,100929.16
2023-05-11T00:47:00.934Z,100862.06
2023-05-11T00:47:27.811Z,100862.06
2023-05-11T00:49:29.851Z,100979.44
2023-05-11T00:51:57.732Z,100974.09
2023-05-11T00:52:27.710Z,100974.09
2023-05-11T00:54:24.691Z,100928.00
2023-05-11T00:56:51.768Z,100956.94
2023-05-11T00:57:27.720Z,100956.94
2023-05-11T00:59:18.567Z,100980.97
2023-05-11T01:01:45.076Z,100994.97
2023-05-11T01:02:27.745Z,100994.97
2023-05-11T01:04:11.451Z,100968.06
2023-05-11T01:07:00.323Z,100955.56
2023-05-11T01:07:27.732Z,100955.56
2023-05-11T01:09:29.745Z,100964.84
2023-05-11T01:12:16.247Z,100958.19
2023-05-11T01:12:27.711Z,100958.19
2023-05-11T01:14:52.972Z,100967.53
2023-05-11T01:17:27.371Z,100891.25
2023-05-11T01:17:27.738Z,100891.25
2023-05-11T01:20:08.187Z,100958.25
2023-05-11T01:22:27.733Z,100958.25
2023-05-11T01:23:05.719Z,100955.03
2023-05-11T01:25:55.434Z,100957.13
2023-05-11T01:27:27.742Z,100957.13
2023-05-11T01:29:01.996Z,100958.84
2023-05-11T01:31:31.373Z,100934.81
2023-05-11T01:32:27.868Z,100934.81
2023-05-11T01:34:02.709Z,100952.81
2023-05-11T01:36:34.141Z,100885.28
2023-05-11T01:37:27.732Z,100885.28
2023-05-11T01:39:08.689Z,100871.69
2023-05-11T01:41:38.320Z,100961.16
2023-05-11T01:42:27.755Z,100961.16
2023-05-11T01:44:07.874Z,100905.09
2023-05-11T01:46:35.006Z,100948.28
2023-05-11T01:47:27.726Z,100948.28
2023-05-11T01:49:07.398Z,100944.34
2023-05-11T01:51:37.439Z,100966.13
2023-05-11T01:52:27.727Z,100966.13
2023-05-11T01:54:07.280Z,100960.97
2023-05-11T01:56:36.314Z,100968.06
2023-05-11T01:57:27.734Z,100968.06
2023-05-11T01:59:03.722Z,100841.31
2023-05-11T02:01:32.161Z,100888.59
2023-05-11T02:02:27.861Z,100888.59
2023-05-11T02:04:02.088Z,100970.31
2023-05-11T02:06:30.970Z,100974.78
2023-05-11T02:07:27.746Z,100974.78
2023-05-11T02:09:00.142Z,100921.38
2023-05-11T02:11:27.932Z,100931.44
2023-05-11T02:12:27.738Z,100931.44
2023-05-11T02:13:56.890Z,100967.00
2023-05-11T02:16:24.798Z,100948.41
2023-05-11T02:17:27.772Z,100948.41
2023-05-11T02:18:52.955Z,100816.00
2023-05-11T02:21:20.654Z,100985.91
2023-05-11T02:22:27.770Z,100985.91
2023-05-11T02:23:49.670Z,100984.75
2023-05-11T02:26:16.745Z,100966.81
2023-05-11T02:27:27.747Z,100966.81
2023-05-11T02:28:43.861Z,101002.53
2023-05-11T02:31:16.925Z,100999.91
2023-05-11T02:32:27.762Z,100999.91
2023-05-11T02:33:47.246Z,100999.44
2023-05-11T02:36:17.651Z,101000.59
2023-05-11T02:37:27.731Z,101000.59
2023-05-11T02:38:46.426Z,101005.22
2023-05-11T02:41:17.462Z,100960.22
2023-05-11T02:42:27.791Z,100960.22
2023-05-11T02:43:51.102Z,100935.91
2023-05-11T02:46:22.766Z,100988.22
2023-05-11T02:47:27.761Z,100988.22
2023-05-11T02:48:55.128Z,101005.50
2023-05-11T02:51:26.405Z,100979.75
2023-05-11T02:52:27.773Z,100979.75
2023-05-11T02:53:56.231Z,100909.69
2023-05-11T02:56:24.202Z,101005.88
2023-05-11T02:57:27.832Z,101005.88
2023-05-11T02:58:51.009Z,101017.41
2023-05-11T03:01:18.111Z,100995.66
2023-05-11T03:02:27.982Z,100995.66
2023-05-11T03:03:46.902Z,101017.75
2023-05-11T03:06:13.602Z,101019.00
2023-05-11T03:07:27.739Z,101019.00
2023-05-11T03:08:41.406Z,101014.88
2023-05-11T03:11:09.560Z,101021.44
2023-05-11T03:12:27.753Z,101021.44
2023-05-11T03:13:36.318Z,101010.50
2023-05-11T03:16:03.909Z,100960.69
2023-05-11T03:17:27.918Z,100960.69
2023-05-11T03:18:31.090Z,100933.72
2023-05-11T03:20:59.298Z,101004.41
2023-05-11T03:22:27.762Z,101004.41
2023-05-11T03:23:26.682Z,101002.81
2023-05-11T03:25:53.575Z,101003.09
2023-05-11T03:27:27.849Z,101003.09
2023-05-11T03:28:22.539Z,101003.44
2023-05-11T03:30:50.958Z,101006.22
2023-05-11T03:32:27.953Z,101006.22
2023-05-11T03:33:17.543Z,100949.56
2023-05-11T03:35:46.443Z,101004.16
2023-05-11T03:37:27.826Z,101004.16
2023-05-11T03:38:14.956Z,100896.69
2023-05-11T03:40:42.435Z,100999.22
2023-05-11T03:42:27.876Z,100999.22
2023-05-11T03:43:16.381Z,101012.00
2023-05-11T03:45:44.176Z,101004.84
2023-05-11T03:47:27.978Z,101004.84
2023-05-11T03:48:11.972Z,100931.44
2023-05-11T03:50:39.336Z,101012.28
2023-05-11T03:52:27.777Z,101012.28
2023-05-11T03:53:06.302Z,100979.59
2023-05-11T03:55:33.115Z,101012.69
2023-05-11T03:57:27.744Z,101012.69
2023-05-11T03:57:59.589Z,101015.19
2023-05-11T04:00:25.959Z,101009.69
2023-05-11T04:02:27.814Z,101009.69
2023-05-11T04:02:52.804Z,100952.66
2023-05-11T04:05:19.353Z,101009.41
2023-05-11T04:07:27.747Z,101009.41
2023-05-11T04:07:46.296Z,100944.25
2023-05-11T04:10:12.740Z,101002.25
2023-05-11T04:12:27.776Z,101002.25
2023-05-11T04:12:39.213Z,100998.84
2023-05-11T04:15:06.686Z,100828.06
2023-05-11T04:17:27.815Z,100828.06
2023-05-11T04:17:33.404Z,100971.34
2023-05-11T04:19:59.794Z,100979.44
2023-05-11T04:22:26.281Z,100991.97
2023-05-11T04:22:27.780Z,100991.97
2023-05-11T04:24:52.653Z,101011.63
2023-05-11T04:27:19.004Z,101005.22
2023-05-11T04:27:27.772Z,101005.22
2023-05-11T04:29:45.478Z,100930.53
2023-05-11T04:32:11.944Z,101014.44
2023-05-11T04:32:27.907Z,101014.44
2023-05-11T04:34:38.503Z,101016.81
2023-05-11T04:37:07.284Z,101013.41
2023-05-11T04:37:27.756Z,101013.41
2023-05-11T04:39:34.573Z,101018.53
2023-05-11T04:42:01.829Z,101012.19
2023-05-11T04:42:27.796Z,101012.19
2023-05-11T04:44:28.272Z,101002.78
2023-05-11T04:46:55.904Z,100970.59
2023-05-11T04:47:27.911Z,100970.59
2023-05-11T04:49:22.637Z,100826.91
2023-05-11T04:51:49.047Z,101004.31
2023-05-11T04:52:27.750Z,101004.31
2023-05-11T04:54:15.533Z,101009.41
2023-05-11T04:56:41.970Z,101013.56
2023-05-11T04:57:27.753Z,101013.56
2023-05-11T04:59:08.352Z,101017.38
2023-05-11T05:01:34.992Z,100955.63
2023-05-11T05:02:27.824Z,100955.63
2023-05-11T05:04:01.646Z,101017.38
2023-05-11T05:06:30.204Z,101015.25
2023-05-11T05:07:27.766Z,101015.25
2023-05-11T05:08:56.583Z,100970.00
2023-05-11T05:11:24.120Z,100981.47
2023-05-11T05:12:27.754Z,100981.47
2023-05-11T05:13:50.474Z,101010.59
2023-05-11T05:16:16.912Z,101008.59
2023-05-11T05:17:27.848Z,101008.59
2023-05-11T05:18:43.298Z,101023.97
2023-05-11T05:21:09.716Z,101007.00
2023-05-11T05:22:27.768Z,101007.00
2023-05-11T05:23:36.117Z,101030.41
2023-05-11T05:26:02.455Z,101018.28
2023-05-11T05:27:27.770Z,101018.28
2023-05-11T05:28:28.863Z,101027.19
2023-05-11T05:30:57.979Z,101029.59
2023-05-11T05:32:27.816Z,101029.59
2023-05-11T05:33:24.482Z,100998.00
2023-05-11T05:35:51.030Z,101032.13
2023-05-11T05:37:27.804Z,101032.13
2023-05-11T05:38:17.456Z,100941.13
2023-05-11T05:40:43.792Z,101043.34
2023-05-11T05:42:27.800Z,101043.34
2023-05-11T05:43:10.082Z,100992.88
2023-05-11T05:45:36.421Z,101044.81
2023-05-11T05:47:27.824Z,101044.81
2023-05-11T05:48:02.930Z,101040.06
2023-05-11T05:50:29.429Z,101008.38
2023-05-11T05:52:27.799Z,101008.38
2023-05-11T05:52:55.864Z,100974.91
2023-05-11T05:55:22.367Z,100966.44
2023-05-11T05:57:27.779Z,100966.44
2023-05-11T05:57:48.693Z,101049.06
2023-05-11T06:00:15.668Z,101046.78
2023-05-11T06:02:27.978Z,101046.78
2023-05-11T06:02:42.212Z,101043.03
2023-05-11T06:05:09.140Z,101040.91
2023-05-11T06:07:27.757Z,101040.91
2023-05-11T06:07:35.574Z,101040.69
2023-05-11T06:10:02.517Z,101043.91
2023-05-11T06:12:37.168Z,101031.41
2023-05-11T06:15:03.752Z,101038.47
2023-05-11T06:17:27.797Z,101038.47
2023-05-11T06:17:30.181Z,101002.78
2023-05-11T06:19:56.602Z,101045.78
2023-05-11T06:22:23.103Z,101050.00
2023-05-11T06:22:27.779Z,101050.00
2023-05-11T06:24:49.656Z,101018.59
2023-05-11T06:27:18.125Z,101049.16
2023-05-11T06:27:27.775Z,101049.16
2023-05-11T06:29:44.866Z,100967.97
2023-05-11T06:32:11.329Z,101034.50
2023-05-11T06:32:27.866Z,101034.50
2023-05-11T06:34:39.239Z,101027.59
2023-05-11T06:37:05.654Z,101040.47
2023-05-11T06:37:27.760Z,101040.47
2023-05-11T06:39:35.291Z,101038.63
2023-05-11T06:42:04.330Z,101032.16
2023-05-11T06:42:27.760Z,101032.16
2023-05-11T06:44:32.949Z,101027.63
2023-05-11T06:47:00.997Z,100963.47
2023-05-11T06:47:27.789Z,100963.47
2023-05-11T06:49:27.424Z,100973.06
2023-05-11T06:51:53.764Z,101025.94
2023-05-11T06:52:27.761Z,101025.94
2023-05-11T06:54:20.102Z,101023.69
2023-05-11T06:56:46.456Z,101026.31
2023-05-11T06:57:27.782Z,101026.31
2023-05-11T06:59:12.937Z,101018.66
2023-05-11T07:01:39.508Z,101010.88
2023-05-11T07:02:27.814Z,101010.88
2023-05-11T07:04:06.308Z,101020.84
2023-05-11T07:06:33.536Z,101021.66
2023-05-11T07:07:27.821Z,101021.66
2023-05-11T07:08:59.972Z,101016.00
2023-05-11T07:11:27.660Z,100937.88
2023-05-11T07:12:27.791Z,100937.88
2023-05-11T07:13:54.111Z,101010.28
2023-05-11T07:16:20.531Z,101000.88
2023-05-11T07:17:27.807Z,101000.88
2023-05-11T07:18:46.948Z,100994.94
2023-05-11T07:21:13.466Z,100990.72
2023-05-11T07:22:27.794Z,100990.72
2023-05-11T07:23:39.790Z,100999.28
2023-05-11T07:26:09.139Z,100961.41
2023-05-11T07:27:27.788Z,100961.41
2023-05-11T07:28:38.884Z,100979.59
2023-05-11T07:31:05.870Z,100791.66
2023-05-11T07:32:27.857Z,100791.66
2023-05-11T07:33:34.566Z,100964.91
2023-05-11T07:36:00.967Z,100945.06
2023-05-11T07:37:27.864Z,100945.06
2023-05-11T07:38:29.747Z,100958.88
2023-05-11T07:40:56.308Z,100972.66
2023-05-11T07:42:27.799Z,100972.66
2023-05-11T07:43:22.906Z,100844.91
2023-05-11T07:45:49.325Z,100949.38
2023-05-11T07:47:27.793Z,100949.38
2023-05-11T07:48:16.417Z,100933.09
2023-05-11T07:50:42.816Z,100961.56
2023-05-11T07:52:27.759Z,100961.56
2023-05-11T07:53:09.393Z,100961.56
2023-05-11T07:55:35.869Z,100938.53
2023-05-11T07:57:27.768Z,100938.53
2023-05-11T07:58:02.535Z,100962.16
2023-05-11T08:00:28.963Z,100963.59
2023-05-11T08:02:27.929Z,100963.59
2023-05-11T08:02:55.558Z,100895.84
2023-05-11T08:05:22.211Z,100950.56
2023-05-11T08:07:27.800Z,100950.56
2023-05-11T08:07:48.745Z,100902.00
2023-05-11T08:10:15.267Z,100936.72
2023-05-11T08:12:27.774Z,100936.72
2023-05-11T08:12:41.889Z,100918.63
2023-05-11T08:15:08.893Z,100847.41
2023-05-11T08:17:27.844Z,100847.41
2023-05-11T08:17:36.382Z,100871.63
2023-05-11T08:20:06.789Z,100855.81
2023-05-11T08:22:27.819Z,100855.81
2023-05-11T08:22:33.328Z,100864.94
2023-05-11T08:24:59.700Z,100801.69
2023-05-11T08:27:26.354Z,100858.06
2023-05-11T08:27:27.856Z,100858.06
2023-05-11T08:29:52.731Z,100795.41
2023-05-11T08:32:19.160Z,100870.47
2023-05-11T08:32:27.906Z,100870.47
2023-05-11T08:34:45.894Z,100881.25
2023-05-11T08:37:12.345Z,100879.16
2023-05-11T08:37:27.894Z,100879.16
2023-05-11T08:39:47.189Z,100881.31
2023-05-11T08:42:16.263Z,100854.06
2023-05-11T08:42:27.793Z,100854.06
2023-05-11T08:44:43.856Z,100874.63
2023-05-11T08:47:27.855Z,100815.84
2023-05-11T08:49:40.856Z,100868.91
2023-05-11T08:52:08.059Z,100855.28
2023-05-11T08:52:27.817Z,100855.28
2023-05-11T08:54:34.572Z,100867.66
2023-05-11T08:57:02.528Z,100862.66
2023-05-11T08:57:27.811Z,100862.66
2023-05-11T08:59:29.370Z,100822.91
2023-05-11T09:01:56.881Z,100850.56
2023-05-11T09:02:27.832Z,100850.56
2023-05-11T09:04:24.447Z,100862.88
2023-05-11T09:06:51.211Z,100873.47
2023-05-11T09:07:27.786Z,100873.47
2023-05-11T09:09:18.222Z,100880.44
2023-05-11T09:11:45.703Z,100853.63
2023-05-11T09:12:27.809Z,100853.63
2023-05-11T09:14:13.254Z,100802.41
2023-05-11T09:16:39.988Z,100850.66
2023-05-11T09:17:27.827Z,100850.66
2023-05-11T09:19:06.602Z,100859.19
2023-05-11T09:21:33.194Z,100841.69
2023-05-11T09:22:30.283Z,100841.69
2023-05-11T09:24:00.589Z,100829.31
2023-05-11T09:26:29.228Z,100802.16
2023-05-11T09:27:27.794Z,100802.16
2023-05-11T09:29:03.249Z,100795.91
2023-05-11T09:31:38.169Z,100806.91
2023-05-11T09:32:27.822Z,100806.91
2023-05-11T09:34:23.108Z,100818.44
2023-05-11T09:36:57.020Z,100825.06
2023-05-11T09:37:27.819Z,100825.06
2023-05-11T09:39:42.050Z,100786.53
2023-05-11T09:42:18.727Z,100773.69
2023-05-11T09:42:27.810Z,100773.69
2023-05-11T09:44:46.137Z,100785.50
2023-05-11T09:47:17.443Z,100773.38
2023-05-11T09:47:27.957Z,100773.38
2023-05-11T09:49:45.522Z,100654.47
2023-05-11T09:52:17.470Z,100804.63
2023-05-11T09:52:27.784Z,100804.63
2023-05-11T09:54:46.852Z,100748.19
2023-05-11T09:57:31.805Z,100807.78
2023-05-11T09:57:31.989Z,100807.78
2023-05-11T09:59:59.910Z,100776.94
2023-05-11T10:02:28.054Z,100834.94
2023-05-11T10:02:28.342Z,100834.94
2023-05-11T10:04:56.594Z,100832.41
2023-05-11T10:07:23.986Z,100844.69
2023-05-11T10:07:27.819Z,100844.69
2023-05-11T10:09:53.178Z,100790.88
2023-05-11T10:12:22.203Z,100840.06
2023-05-11T10:12:27.810Z,100840.06
2023-05-11T10:14:51.842Z,100733.47
2023-05-11T10:17:19.188Z,100755.56
2023-05-11T10:17:27.828Z,100755.56
2023-05-11T10:19:47.344Z,100807.13
2023-05-11T10:22:13.955Z,100858.03
2023-05-11T10:22:27.923Z,100858.03
2023-05-11T10:24:41.016Z,100849.06
2023-05-11T10:27:07.930Z,100852.19
2023-05-11T10:27:27.829Z,100852.19
2023-05-11T10:29:34.508Z,100857.38
2023-05-11T10:32:02.516Z,100825.44
2023-05-11T10:32:27.949Z,100825.44
2023-05-11T10:34:29.332Z,100867.19
2023-05-11T11:30:39.153Z,100593.44
2023-05-11T11:32:27.912Z,100593.44
2023-05-11T11:33:08.546Z,100633.59
2023-05-11T11:35:47.322Z,100631.38
2023-05-11T11:37:27.844Z,100631.38
2023-05-11T11:38:16.440Z,100605.94
2023-05-11T11:40:51.057Z,100630.09
2023-05-11T11:42:27.886Z,100630.09
2023-05-11T11:43:22.418Z,100575.75
2023-05-11T11:45:59.687Z,100623.44
2023-05-11T11:47:27.864Z,100623.44
2023-05-11T11:48:37.557Z,100604.38
2023-05-11T11:51:09.104Z,100575.69
2023-05-11T11:52:27.861Z,100575.69
2023-05-11T11:53:41.449Z,100550.56
2023-05-11T11:56:13.886Z,100539.84
2023-05-11T11:57:27.847Z,100539.84
2023-05-11T11:58:40.220Z,100542.25
2023-05-11T12:01:14.199Z,100485.50
2023-05-11T12:02:27.948Z,100485.50
2023-05-11T12:03:42.129Z,100540.75
2023-05-11T12:06:10.490Z,100540.31
2023-05-11T12:07:27.836Z,100540.31
2023-05-11T12:08:38.151Z,100524.75
2023-05-11T12:11:05.885Z,100540.56
2023-05-11T12:12:27.865Z,100540.56
2023-05-11T12:13:33.573Z,100597.69
2023-05-11T12:16:18.890Z,100561.50
2023-05-11T12:17:27.873Z,100561.50
2023-05-11T12:18:53.969Z,100581.56
2023-05-11T12:21:21.618Z,100663.59
2023-05-11T12:22:27.829Z,100663.59
2023-05-11T12:24:02.081Z,100619.53
2023-05-11T12:26:29.869Z,100552.19
2023-05-11T12:27:27.833Z,100552.19
2023-05-11T12:29:14.149Z,100578.47
2023-05-11T12:31:45.766Z,100560.50
2023-05-11T12:32:27.928Z,100560.50
2023-05-11T12:34:21.943Z,100585.25
2023-05-11T12:36:53.437Z,100528.78
2023-05-11T12:37:27.846Z,100528.78
2023-05-11T12:39:20.866Z,100596.16
2023-05-11T12:41:49.460Z,100601.03
2023-05-11T12:42:27.883Z,100601.03
2023-05-11T12:44:17.288Z,100582.28
2023-05-11T12:46:46.075Z,100401.66
2023-05-11T12:47:27.872Z,100401.66
2023-05-11T12:49:15.424Z,100527.47
2023-05-11T12:51:50.484Z,100581.19
2023-05-11T12:52:27.848Z,100581.19
2023-05-11T12:54:52.267Z,100612.44
2023-05-11T12:57:33.891Z,100575.41
2023-05-11T12:57:34.026Z,100575.41
2023-05-11T13:00:07.998Z,100601.81
2023-05-11T13:02:27.976Z,100601.81
2023-05-11T13:02:34.907Z,100591.00
2023-05-11T13:05:11.891Z,100552.13
2023-05-11T13:07:27.842Z,100552.13
2023-05-11T13:07:39.075Z,100530.00
2023-05-11T13:10:06.073Z,100551.72
2023-05-11T13:12:29.582Z,100551.72
2023-05-11T13:12:34.206Z,100542.59
2023-05-11T13:15:11.305Z,100570.94
2023-05-11T13:17:27.977Z,100570.94
2023-05-11T13:17:39.238Z,100585.25
2023-05-11T13:20:30.117Z,100625.44
2023-05-11T13:22:27.871Z,100625.44
2023-05-11T13:23:04.227Z,100607.88
2023-05-11T13:25:32.319Z,100509.69
2023-05-11T13:27:27.838Z,100509.69
2023-05-11T13:27:58.910Z,100504.25
2023-05-11T13:30:25.316Z,100503.53
2023-05-11T13:32:28.005Z,100503.53
2023-05-11T13:32:51.738Z,100528.34
2023-05-11T13:35:18.297Z,100549.63
2023-05-11T13:37:27.930Z,100549.63
2023-05-11T13:37:46.448Z,100587.03
2023-05-11T13:40:13.346Z,100426.97
2023-05-11T13:42:27.862Z,100426.97
2023-05-11T13:42:41.556Z,100528.72
2023-05-11T13:45:08.334Z,100567.22
2023-05-11T13:47:27.944Z,100567.22
2023-05-11T13:47:37.126Z,100571.75
2023-05-11T13:50:04.688Z,100528.56
2023-05-11T13:52:27.873Z,100528.56
2023-05-11T13:52:31.221Z,100549.16
2023-05-11T13:54:57.584Z,100543.19
2023-05-11T13:57:24.094Z,100577.59
2023-05-11T13:57:27.897Z,100577.59
2023-05-11T13:59:50.862Z,100439.78
2023-05-11T14:02:17.278Z,100552.72
2023-05-11T14:02:28.025Z,100552.72
2023-05-11T14:04:43.761Z,100587.25
2023-05-11T14:07:10.176Z,100562.47
2023-05-11T14:07:42.809Z,100562.47
2023-05-11T14:09:37.125Z,100486.44
2023-05-11T14:12:03.832Z,100523.53
2023-05-11T14:12:27.831Z,100523.53
2023-05-11T14:14:30.210Z,100503.28
2023-05-11T14:16:56.993Z,100617.75
2023-05-11T14:17:27.892Z,100617.75
2023-05-11T14:19:23.400Z,100549.13
2023-05-11T14:21:49.836Z,100517.69
2023-05-11T14:22:27.861Z,100517.69
2023-05-11T14:24:16.250Z,100493.41
2023-05-11T14:26:42.619Z,100563.63
2023-05-11T14:27:27.880Z,100563.63
2023-05-11T14:29:09.036Z,100640.28
2023-05-11T14:31:36.191Z,100630.00
2023-05-11T14:32:27.998Z,100630.00
2023-05-11T14:34:03.907Z,100586.97
2023-05-11T14:36:31.666Z,100632.94
2023-05-11T14:37:27.860Z,100632.94
2023-05-11T14:38:58.237Z,100621.56
2023-05-11T14:41:25.579Z,100710.66
2023-05-11T14:42:27.927Z,100710.66
2023-05-11T14:43:52.201Z,100648.84
2023-05-11T14:46:18.712Z,100668.25
2023-05-11T14:47:27.893Z,100668.25
2023-05-11T14:48:45.046Z,100655.31
2023-05-11T14:51:11.399Z,100670.66
2023-05-11T14:52:27.889Z,100670.66
2023-05-11T14:53:37.740Z,100686.69
2023-05-11T14:56:04.326Z,100653.94
2023-05-11T14:57:27.878Z,100653.94
2023-05-11T14:58:30.754Z,100664.94
2023-05-11T15:00:57.406Z,100715.47
2023-05-11T15:02:27.924Z,100715.47
2023-05-11T15:03:24.887Z,100671.47
2023-05-11T15:05:51.839Z,100665.22
2023-05-11T15:07:27.933Z,100665.22
2023-05-11T15:08:29.033Z,100533.75
2023-05-11T15:10:57.120Z,100652.38
2023-05-11T15:12:27.873Z,100652.38
2023-05-11T15:13:23.992Z,100477.06
2023-05-11T15:15:51.534Z,100644.66
2023-05-11T15:17:27.895Z,100644.66
2023-05-11T15:18:18.151Z,100595.97
2023-05-11T15:20:44.777Z,100661.22
2023-05-11T15:22:27.890Z,100661.22
2023-05-11T15:23:11.788Z,100667.13
2023-05-11T15:25:38.371Z,100679.03
2023-05-11T15:27:27.896Z,100679.03
2023-05-11T15:28:06.060Z,100739.41
2023-05-11T15:30:32.852Z,100497.69
2023-05-11T15:32:27.901Z,100497.69
2023-05-11T15:32:59.555Z,100701.47
2023-05-11T15:35:25.978Z,100685.16
2023-05-11T15:37:27.886Z,100685.16
2023-05-11T15:37:52.397Z,100711.97
2023-05-11T15:40:18.789Z,100687.84
2023-05-11T15:42:27.940Z,100687.84
2023-05-11T15:42:45.133Z,100714.38
2023-05-11T15:45:11.780Z,100757.88
2023-05-11T15:47:27.968Z,100757.88
2023-05-11T15:47:38.255Z,100725.09
2023-05-11T15:50:06.108Z,100785.13
2023-05-11T15:52:27.868Z,100785.13
2023-05-11T15:52:32.490Z,100778.84
2023-05-11T15:54:58.899Z,100799.00
2023-05-11T15:57:25.458Z,100839.53
2023-05-11T15:57:27.886Z,100839.53
2023-05-11T15:59:51.826Z,100910.75
2023-05-11T16:02:18.289Z,100945.75
2023-05-11T16:02:27.932Z,100945.75
2023-05-11T16:04:44.660Z,100917.84
2023-05-11T16:07:13.568Z,100895.47
2023-05-11T16:07:27.900Z,100895.47
2023-05-11T16:09:39.876Z,100983.38
2023-05-11T16:12:06.712Z,100889.13
2023-05-11T16:12:27.878Z,100889.13
2023-05-11T16:14:33.214Z,100911.88
2023-05-11T16:17:02.485Z,100952.63
2023-05-11T16:17:27.920Z,100952.63
2023-05-11T16:19:29.973Z,100874.66
2023-05-11T16:21:56.448Z,100938.22
2023-05-11T16:22:27.901Z,100938.22
2023-05-11T16:24:22.803Z,100856.88
2023-05-11T16:26:50.003Z,100923.53
2023-05-11T16:27:27.885Z,100923.53
2023-05-11T16:29:16.474Z,100899.41
2023-05-11T16:31:42.957Z,100906.84
2023-05-11T16:32:28.045Z,100906.84
2023-05-11T16:34:09.331Z,100950.63
2023-05-11T16:36:35.691Z,100939.69
2023-05-11T16:37:27.889Z,100939.69
2023-05-11T16:39:02.029Z,100941.81
2023-05-11T16:41:28.725Z,100933.50
2023-05-11T16:42:27.993Z,100933.50
2023-05-11T16:43:55.711Z,100925.13
2023-05-11T16:46:22.558Z,100927.47
2023-05-11T16:47:27.931Z,100927.47
2023-05-11T16:48:49.004Z,100845.94
2023-05-11T16:51:15.613Z,100932.03
2023-05-11T16:52:27.900Z,100932.03
2023-05-11T16:53:42.072Z,100939.41
2023-05-11T16:56:08.636Z,100860.56
2023-05-11T16:57:27.897Z,100860.56
2023-05-11T16:58:35.319Z,100889.41
2023-05-11T17:01:01.766Z,100870.59
2023-05-11T17:02:27.936Z,100870.59
2023-05-11T17:03:28.452Z,100909.97
2023-05-11T17:05:55.894Z,100926.56
2023-05-11T17:07:27.909Z,100926.56
2023-05-11T17:08:22.245Z,100881.13
2023-05-11T17:10:48.658Z,100760.53
2023-05-11T17:12:27.915Z,100760.53
2023-05-11T17:13:15.109Z,100873.81
2023-05-11T17:15:41.852Z,100944.41
2023-05-11T17:17:27.954Z,100944.41
2023-05-11T17:18:08.485Z,100926.91
2023-05-11T17:20:35.055Z,100948.63
2023-05-11T17:22:27.957Z,100948.63
2023-05-11T17:23:01.455Z,100945.06
2023-05-11T17:25:29.394Z,100946.06
2023-05-11T17:27:27.929Z,100946.06
2023-05-11T17:27:55.789Z,100948.97
2023-05-11T17:30:25.463Z,100950.34
2023-05-11T17:32:28.349Z,100950.34
2023-05-11T17:32:56.732Z,100922.53
2023-05-11T17:35:23.217Z,100898.66
2023-05-11T17:37:31.834Z,100898.66
2023-05-11T17:37:49.581Z,100931.06
2023-05-11T17:40:16.359Z,100954.72
2023-05-11T17:42:27.991Z,100954.72
2023-05-11T17:42:43.292Z,100955.69
2023-05-11T17:45:10.264Z,100959.59
2023-05-11T17:47:27.941Z,100959.59
2023-05-11T17:47:36.720Z,100958.31
2023-05-11T17:50:03.136Z,100817.94
2023-05-11T17:52:27.894Z,100817.94
2023-05-11T17:52:29.735Z,100949.56
2023-05-11T17:54:56.524Z,100965.50
2023-05-11T17:57:25.240Z,100937.16
2023-05-11T17:57:27.913Z,100937.16
2023-05-11T17:59:51.703Z,100949.69
2023-05-11T18:02:18.925Z,100899.75
2023-05-11T18:02:27.998Z,100899.75
2023-05-11T18:04:46.330Z,100962.91
2023-05-11T18:07:12.746Z,100899.78
2023-05-11T18:07:27.914Z,100899.78
2023-05-11T18:09:39.651Z,100955.84
2023-05-11T18:12:07.780Z,100958.09
2023-05-11T18:12:27.925Z,100958.09
2023-05-11T18:14:34.190Z,100961.19
2023-05-11T18:17:00.641Z,100881.78
2023-05-11T18:17:28.007Z,100881.78
2023-05-11T18:19:28.585Z,100962.97
2023-05-11T18:21:55.049Z,100884.41
2023-05-11T18:22:27.916Z,100884.41
2023-05-11T18:24:21.611Z,100977.03
2023-05-11T18:26:48.013Z,100959.56
2023-05-11T18:27:27.904Z,100959.56
2023-05-11T18:29:19.127Z,100944.19
2023-05-11T18:31:46.378Z,100894.66
2023-05-11T18:32:27.962Z,100894.66
2023-05-11T18:34:12.802Z,100961.97
2023-05-11T18:36:39.140Z,100979.09
2023-05-11T18:37:27.987Z,100979.09
2023-05-11T18:39:05.475Z,100870.84
2023-05-11T18:41:31.860Z,100982.09
2023-05-11T18:42:27.905Z,100982.09
2023-05-11T18:43:58.201Z,100981.06
2023-05-11T18:46:24.559Z,100978.63
2023-05-11T18:47:27.943Z,100978.63
2023-05-11T18:48:52.740Z,100830.88
2023-05-11T18:51:22.738Z,100952.22
2023-05-11T18:52:27.936Z,100952.22
2023-05-11T18:53:50.105Z,100996.25
2023-05-11T18:56:17.303Z,101004.03
2023-05-11T18:57:27.923Z,101004.03
2023-05-11T18:58:46.703Z,100924.16
2023-05-11T19:01:13.289Z,100923.38
2023-05-11T19:02:28.049Z,100923.38
2023-05-11T19:03:41.944Z,100810.53
2023-05-11T19:06:08.987Z,101019.81
2023-05-11T19:07:27.952Z,101019.81
2023-05-11T19:08:35.370Z,101016.59
2023-05-11T19:11:09.414Z,100987.47
2023-05-11T19:12:27.918Z,100987.47
2023-05-11T19:13:36.608Z,100961.50
2023-05-11T19:16:04.196Z,101026.03
2023-05-11T19:17:28.016Z,101026.03
2023-05-11T19:18:32.173Z,100991.88
2023-05-11T19:20:58.606Z,100980.00
2023-05-11T19:22:27.936Z,100980.00
2023-05-11T19:23:25.032Z,101031.03
2023-05-11T19:25:51.470Z,101021.44
2023-05-11T19:27:27.958Z,101021.44
2023-05-11T19:28:17.846Z,101037.34
2023-05-11T19:30:44.182Z,101019.47
2023-05-11T19:32:28.039Z,101019.47
2023-05-11T19:33:11.794Z,100999.03
2023-05-11T19:35:38.320Z,100993.28
2023-05-11T19:37:27.981Z,100993.28
2023-05-11T19:38:06.209Z,101041.16
2023-05-11T19:40:45.538Z,101016.88
2023-05-11T19:42:36.021Z,101016.88
2023-05-11T19:43:13.329Z,101021.97
2023-05-11T19:45:42.269Z,101023.66
2023-05-11T19:47:27.962Z,101023.66
2023-05-11T19:48:08.994Z,101059.19
2023-05-11T19:50:35.441Z,100995.31